createdAt,value
2023-05-16T00:02:41.358Z,6.27
2023-05-16T00:07:34.655Z,6.13
2023-05-16T00:12:27.233Z,5.00
2023-05-16T00:17:20.354Z,6.83
2023-05-16T00:22:12.241Z,7.80
2023-05-16T00:27:04.095Z,5.87
2023-05-16T00:31:55.974Z,6.23
2023-05-16T00:36:47.761Z,4.93
2023-05-16T00:41:39.873Z,4.47
2023-05-16T00:46:31.697Z,5.60
2023-05-16T00:51:23.647Z,4.40
2023-05-16T00:56:17.533Z,5.43
2023-05-16T01:01:09.438Z,5.03
2023-05-16T01:06:01.230Z,5.53
2023-05-16T01:11:12.114Z,4.47
2023-05-16T01:16:20.847Z,4.97
2023-05-16T01:21:53.946Z,4.37
2023-05-16T01:26:46.726Z,5.93
2023-05-16T01:31:38.463Z,5.67
2023-05-16T01:36:39.723Z,5.67
2023-05-16T01:42:07.850Z,8.47
2023-05-16T01:47:06.759Z,5.13
2023-05-16T01:52:22.854Z,4.70
2023-05-16T01:57:16.140Z,4.77
2023-05-16T02:02:07.885Z,5.83
2023-05-16T02:07:00.948Z,5.47
2023-05-16T02:11:52.847Z,4.63
2023-05-16T02:16:44.592Z,5.00
2023-05-16T02:21:36.365Z,4.87
2023-05-16T02:26:28.237Z,5.60
2023-05-16T02:31:34.620Z,5.67
2023-05-16T02:36:26.585Z,5.27
2023-05-16T02:41:18.796Z,4.03
2023-05-16T02:46:28.846Z,3.47
2023-05-16T02:51:23.763Z,3.90
2023-05-16T02:56:15.721Z,4.87
2023-05-16T03:01:07.998Z,4.43
2023-05-16T03:05:59.897Z,4.90
2023-05-16T03:10:51.779Z,5.93
2023-05-16T03:15:43.484Z,6.47
2023-05-16T03:20:35.210Z,5.17
2023-05-16T03:25:27.162Z,4.13
2023-05-16T03:30:20.179Z,6.07
2023-05-16T03:35:12.008Z,7.03
2023-05-16T03:40:07.201Z,3.90
2023-05-16T03:44:58.941Z,5.03
2023-05-16T03:49:50.741Z,3.87
2023-05-16T03:54:42.415Z,4.20
2023-05-16T03:59:34.509Z,4.70
2023-05-16T04:04:26.231Z,4.97
2023-05-16T04:09:18.616Z,5.60
2023-05-16T04:14:10.484Z,4.67
2023-05-16T04:19:02.937Z,6.17
2023-05-16T04:23:54.644Z,4.70
2023-05-16T04:28:46.365Z,6.50
2023-05-16T04:33:38.351Z,5.43
2023-05-16T04:38:30.032Z,5.77
2023-05-16T04:43:21.712Z,6.43
2023-05-16T04:48:13.556Z,5.23
2023-05-16T04:53:05.284Z,3.90
2023-05-16T04:57:57.080Z,5.60
2023-05-16T05:02:48.823Z,6.80
2023-05-16T05:07:40.816Z,4.40
2023-05-16T05:12:32.543Z,5.50
2023-05-16T05:17:24.442Z,7.30
2023-05-16T05:22:16.322Z,9.70
2023-05-16T05:27:08.106Z,9.37
2023-05-16T05:31:59.837Z,11.83
2023-05-16T05:36:51.538Z,13.00
2023-05-16T05:41:43.207Z,13.07
2023-05-16T05:46:35.716Z,14.23
2023-05-16T05:51:27.952Z,19.07
2023-05-16T05:56:21.189Z,15.13
2023-05-16T06:01:12.875Z,17.63
2023-05-16T06:06:05.130Z,19.03
2023-05-16T06:10:56.831Z,23.98
2023-05-16T06:15:54.898Z,23.10
2023-05-16T06:20:46.918Z,26.13
2023-05-16T06:25:38.732Z,23.87
2023-05-16T06:30:30.724Z,27.80
2023-05-16T06:35:23.031Z,24.83
2023-05-16T06:40:14.711Z,23.55
2023-05-16T06:45:07.614Z,25.90
2023-05-16T06:49:59.362Z,23.40
2023-05-16T06:54:52.048Z,24.70
2023-05-16T06:59:44.326Z,23.33
2023-05-16T07:04:37.816Z,26.35
2023-05-16T07:09:29.530Z,24.80
2023-05-16T07:14:21.250Z,21.95
2023-05-16T07:19:13.042Z,22.42
2023-05-16T07:24:05.684Z,21.67
2023-05-16T07:28:58.033Z,21.75
2023-05-16T07:33:50.378Z,18.48
2023-05-16T07:38:42.914Z,19.63
2023-05-16T07:43:35.421Z,20.85
2023-05-16T07:48:27.287Z,20.52
2023-05-16T07:53:19.028Z,18.85
2023-05-16T07:58:10.834Z,18.65
2023-05-16T08:03:03.604Z,18.83
2023-05-16T08:07:55.407Z,25.45
2023-05-16T08:12:48.264Z,19.27
2023-05-16T08:17:40.230Z,17.13
2023-05-16T08:22:33.427Z,16.20
2023-05-16T08:27:25.410Z,16.92
2023-05-16T08:32:17.137Z,17.38
2023-05-16T08:37:08.883Z,16.08
2023-05-16T08:42:00.792Z,13.95
2023-05-16T08:46:54.220Z,13.88
2023-05-16T08:51:52.711Z,16.30
2023-05-16T08:56:45.836Z,11.43
2023-05-16T09:01:37.968Z,10.98
2023-05-16T09:06:30.226Z,11.48
2023-05-16T09:11:22.432Z,12.15
2023-05-16T09:16:16.698Z,13.45
2023-05-16T09:21:10.361Z,15.73
2023-05-16T09:26:05.230Z,16.85
2023-05-16T09:30:59.416Z,16.63
2023-05-16T09:35:59.944Z,18.15
2023-05-16T12:11:40.213Z,13.13
2023-05-16T17:11:32.662Z,7.77
2023-05-16T17:53:01.160Z,4.43
2023-05-16T17:57:56.826Z,4.63
2023-05-16T18:18:28.658Z,3.53
2023-05-16T19:45:14.945Z,3.40
2023-05-16T20:00:23.184Z,6.43
2023-05-16T20:20:39.124Z,4.80
2023-05-16T20:51:10.154Z,4.07
2023-05-16T21:06:22.002Z,4.03
2023-05-16T21:26:37.076Z,5.47
2023-05-16T21:41:40.535Z,5.90
